Time;durP1;ratioP1;P1;durP2;ratioP2;P2;SDS_P1;SDS_P2;PMS_P1;PMS_P2;Temp;Humidity;BMP_temperature;BMP_pressure;BME280_temperature;BME280_humidity;BME280_pressure;Samples;Min_cycle;Max_cycle;Signal;HPM_P1;HPM_P2
2021/04/01 00:00:37;;;;;;;512.75;362.90;;;;;;;;;;4963264;28;20094;-85
2021/04/01 00:03:09;;;;;;;517.72;361.83;;;;;;;;;;4963953;28;20118;-84
2021/04/01 00:05:35;;;;;;;509.05;356.60;;;;;;;;;;4977816;28;20505;-84
2021/04/01 00:08:01;;;;;;;514.40;358.05;;;;;;;;;;4977008;28;20113;-84
2021/04/01 00:10:28;;;;;;;518.33;366.92;;;;;;;;;;4968703;28;20034;-84
2021/04/01 00:12:55;;;;;;;518.03;365.90;;;;;;;;;;4966279;28;20030;-85
2021/04/01 00:15:21;;;;;;;520.85;368.33;;;;;;;;;;4975971;28;20033;-84
2021/04/01 00:17:47;;;;;;;516.85;362.40;;;;;;;;;;4975287;28;20038;-84
2021/04/01 00:20:14;;;;;;;519.50;365.10;;;;;;;;;;4961133;28;20039;-85
2021/04/01 00:22:43;;;;;;;515.25;362.02;;;;;;;;;;4960356;28;20034;-84
2021/04/01 00:25:10;;;;;;;512.10;354.13;;;;;;;;;;4973427;28;20054;-87
2021/04/01 00:27:36;;;;;;;514.10;360.70;;;;;;;;;;4972451;28;20038;-83
2021/04/01 00:30:03;;;;;;;508.60;354.25;;;;;;;;;;4966744;28;20042;-82
2021/04/01 00:32:31;;;;;;;515.75;350.45;;;;;;;;;;4969286;28;20043;-84
2021/04/01 00:34:57;;;;;;;513.67;352.88;;;;;;;;;;4957363;28;20054;-83
2021/04/01 00:37:24;;;;;;;520.38;363.35;;;;;;;;;;4963710;28;20026;-84
2021/04/01 00:39:50;;;;;;;520.50;367.40;;;;;;;;;;4976632;28;20446;-85
2021/04/01 00:42:16;;;;;;;518.00;360.38;;;;;;;;;;4969817;28;20023;-85
2021/04/01 00:44:42;;;;;;;519.33;364.95;;;;;;;;;;4965995;28;20382;-84
2021/04/01 00:47:08;;;;;;;519.92;365.35;;;;;;;;;;4957833;28;20042;-85
2021/04/01 00:49:38;;;;;;;523.53;365.73;;;;;;;;;;4957108;28;20038;-84
2021/04/01 00:52:07;;;;;;;;;;;;;;;;;;4973164;28;20670;-84
2021/04/01 00:54:33;;;;;;;527.30;355.40;;;;;;;;;;5007839;28;19913;-83
2021/04/01 00:56:59;;;;;;;520.40;352.05;;;;;;;;;;4966341;28;20041;-84
2021/04/01 00:59:25;;;;;;;530.75;374.02;;;;;;;;;;4970924;28;20027;-83
2021/04/01 01:01:52;;;;;;;529.78;368.95;;;;;;;;;;4962418;28;20038;-84
2021/04/01 01:04:18;;;;;;;530.92;365.58;;;;;;;;;;4972375;28;20113;-85
2021/04/01 01:06:45;;;;;;;512.50;363.25;;;;;;;;;;4974597;28;20480;-82
2021/04/01 01:09:13;;;;;;;521.35;369.77;;;;;;;;;;4966432;28;20042;-84
2021/04/01 01:11:40;;;;;;;527.53;364.67;;;;;;;;;;4957388;28;20058;-84
2021/04/01 01:14:07;;;;;;;494.50;350.02;;;;;;;;;;4957655;28;20123;-83
2021/04/01 01:16:33;;;;;;;509.40;353.30;;;;;;;;;;4957226;28;20029;-83
2021/04/01 01:19:01;;;;;;;519.75;364.15;;;;;;;;;;4965567;28;20069;-83
2021/04/01 01:21:30;;;;;;;518.83;357.50;;;;;;;;;;4956989;28;20022;-83
2021/04/01 01:23:57;;;;;;;529.00;367.25;;;;;;;;;;4973350;28;20082;-84
2021/04/01 01:26:23;;;;;;;518.42;357.48;;;;;;;;;;4979850;28;20023;-82
2021/04/01 01:28:49;;;;;;;519.97;360.60;;;;;;;;;;4976487;28;20023;-83
2021/04/01 01:31:18;;;;;;;519.60;360.35;;;;;;;;;;4992524;28;20036;-84
2021/04/01 01:33:44;;;;;;;519.65;362.10;;;;;;;;;;4966547;28;20027;-84
2021/04/01 01:36:11;;;;;;;521.83;360.50;;;;;;;;;;4979247;28;20121;-84
2021/04/01 01:38:37;;;;;;;521.60;363.40;;;;;;;;;;4980744;28;20050;-84
2021/04/01 01:41:03;;;;;;;528.22;371.23;;;;;;;;;;4974755;28;20042;-84
2021/04/01 01:43:30;;;;;;;529.08;369.35;;;;;;;;;;4989393;28;20022;-83
2021/04/01 01:45:56;;;;;;;528.92;363.13;;;;;;;;;;4977750;28;20092;-83
2021/04/01 01:48:22;;;;;;;528.30;363.95;;;;;;;;;;4980694;28;20030;-82
2021/04/01 01:50:48;;;;;;;535.35;373.60;;;;;;;;;;4978900;28;20042;-85
2021/04/01 01:53:14;;;;;;;526.25;363.83;;;;;;;;;;4974458;28;20054;-82
2021/04/01 01:55:43;;;;;;;529.10;369.60;;;;;;;;;;4980174;28;20088;-83
2021/04/01 01:58:11;;;;;;;522.60;360.92;;;;;;;;;;4977955;28;20025;-82
2021/04/01 02:00:41;;;;;;;527.20;364.20;;;;;;;;;;4990206;28;20027;-84
2021/04/01 02:03:08;;;;;;;524.95;361.67;;;;;;;;;;4979419;28;20066;-84
2021/04/01 02:05:34;;;;;;;521.70;363.20;;;;;;;;;;4981081;28;20144;-85
2021/04/01 02:08:01;;;;;;;525.65;373.17;;;;;;;;;;4995231;28;20032;-83
2021/04/01 02:10:32;;;;;;;526.03;361.73;;;;;;;;;;4992926;28;20045;-84
2021/04/01 02:12:59;;;;;;;529.70;366.92;;;;;;;;;;4993965;28;20038;-83
2021/04/01 02:15:26;;;;;;;524.92;366.95;;;;;;;;;;4990184;28;20029;-84
2021/04/01 02:18:01;;;;;;;518.20;355.85;;;;;;;;;;4994261;28;20060;-84
2021/04/01 02:20:27;;;;;;;523.45;359.42;;;;;;;;;;4984865;28;20516;-84
2021/04/01 02:22:53;;;;;;;527.03;365.30;;;;;;;;;;4992872;28;20025;-83
2021/04/01 02:25:19;;;;;;;520.10;357.38;;;;;;;;;;4994290;28;20042;-83
2021/04/01 02:27:45;;;;;;;528.28;366.60;;;;;;;;;;4976819;28;20060;-83
2021/04/01 02:30:16;;;;;;;528.60;369.05;;;;;;;;;;4975567;28;20034;-84
2021/04/01 02:32:42;;;;;;;523.72;358.83;;;;;;;;;;4978356;28;20030;-84
2021/04/01 02:35:08;;;;;;;534.80;372.00;;;;;;;;;;4974998;28;20026;-83
2021/04/01 02:37:36;;;;;;;529.63;367.08;;;;;;;;;;4994002;28;20052;-85
2021/04/01 02:40:03;;;;;;;533.45;367.15;;;;;;;;;;4985798;28;20026;-82
2021/04/01 02:42:29;;;;;;;523.58;356.45;;;;;;;;;;4983422;28;20026;-83
2021/04/01 02:44:55;;;;;;;522.83;353.33;;;;;;;;;;4979836;28;20026;-83
2021/04/01 02:47:21;;;;;;;527.50;362.67;;;;;;;;;;4980560;28;20026;-85
2021/04/01 02:49:47;;;;;;;531.95;364.02;;;;;;;;;;4992586;28;20037;-84
2021/04/01 02:52:13;;;;;;;524.90;357.33;;;;;;;;;;4988713;28;20363;-83
2021/04/01 02:54:39;;;;;;;525.35;353.13;;;;;;;;;;4991101;28;20022;-84
2021/04/01 02:57:18;;;;;;;533.88;367.33;;;;;;;;;;4990571;28;20022;-84
2021/04/01 02:59:45;;;;;;;531.83;360.20;;;;;;;;;;4981678;28;20030;-83
2021/04/01 03:02:11;;;;;;;541.72;366.52;;;;;;;;;;4974686;28;20065;-84
2021/04/01 03:04:38;;;;;;;531.00;359.30;;;;;;;;;;4993417;28;20026;-84
2021/04/01 03:07:04;;;;;;;540.03;367.13;;;;;;;;;;4980261;28;20121;-83
2021/04/01 03:09:30;;;;;;;528.33;354.52;;;;;;;;;;4975328;28;20590;-84
2021/04/01 03:11:56;;;;;;;531.85;353.90;;;;;;;;;;4984750;28;20038;-83
2021/04/01 03:14:22;;;;;;;527.85;355.65;;;;;;;;;;4991052;28;20398;-83
2021/04/01 03:16:48;;;;;;;540.92;353.80;;;;;;;;;;5006265;28;20045;-84
2021/04/01 03:19:14;;;;;;;533.88;364.95;;;;;;;;;;4991068;28;20056;-84
2021/04/01 03:21:41;;;;;;;531.85;355.60;;;;;;;;;;5014895;28;20030;-85
2021/04/01 03:24:07;;;;;;;538.40;364.35;;;;;;;;;;4981381;28;20140;-85
2021/04/01 03:26:34;;;;;;;530.80;351.48;;;;;;;;;;4982619;28;20130;-84
2021/04/01 03:29:00;;;;;;;526.42;355.73;;;;;;;;;;4982751;28;20475;-83
2021/04/01 03:31:26;;;;;;;540.67;370.13;;;;;;;;;;4990598;28;20022;-84
2021/04/01 03:33:52;;;;;;;534.60;352.88;;;;;;;;;;4973870;28;20034;-83
2021/04/01 03:36:18;;;;;;;524.55;346.35;;;;;;;;;;4988496;28;20022;-83
2021/04/01 03:38:46;;;;;;;531.95;347.70;;;;;;;;;;4994090;28;20038;-83
2021/04/01 03:41:12;;;;;;;524.17;341.48;;;;;;;;;;4991089;28;20070;-84
2021/04/01 03:43:38;;;;;;;525.67;343.88;;;;;;;;;;4993945;28;20029;-85
2021/04/01 03:46:04;;;;;;;505.40;334.65;;;;;;;;;;4988124;28;20336;-84
2021/04/01 03:48:30;;;;;;;531.85;349.13;;;;;;;;;;4988232;28;20030;-85
2021/04/01 03:50:56;;;;;;;552.60;360.80;;;;;;;;;;4981876;28;20038;-84
2021/04/01 03:53:22;;;;;;;555.17;354.45;;;;;;;;;;4986738;28;20370;-84
2021/04/01 03:55:49;;;;;;;574.75;357.33;;;;;;;;;;4990297;28;20034;-84
2021/04/01 04:03:58;;;;;;;577.60;372.38;;;;;;;;;;5006338;28;20030;-83
2021/04/01 04:09:26;;;;;;;570.65;366.25;;;;;;;;;;4997153;28;20065;-84
2021/04/01 04:14:40;;;;;;;572.72;355.00;;;;;;;;;;5013253;28;20060;-85
2021/04/01 04:17:06;;;;;;;581.33;364.27;;;;;;;;;;4983643;28;20034;-83
2021/04/01 04:19:34;;;;;;;566.10;366.15;;;;;;;;;;4978087;28;20030;-85
2021/04/01 04:22:00;;;;;;;567.15;357.05;;;;;;;;;;4979538;28;20450;-83
2021/04/01 04:24:27;;;;;;;575.20;364.35;;;;;;;;;;4991481;28;20046;-84
2021/04/01 04:27:05;;;;;;;582.88;362.88;;;;;;;;;;4987857;28;20607;-87
2021/04/01 04:29:34;;;;;;;561.65;345.38;;;;;;;;;;4994580;28;20087;-85
2021/04/01 04:32:00;;;;;;;582.45;358.27;;;;;;;;;;4987222;28;20474;-83
2021/04/01 04:34:26;;;;;;;575.08;355.83;;;;;;;;;;4980640;28;20132;-84
2021/04/01 04:36:52;;;;;;;572.60;358.02;;;;;;;;;;4986001;28;20045;-84
2021/04/01 04:39:20;;;;;;;576.53;357.20;;;;;;;;;;4996910;28;20445;-85
2021/04/01 04:41:46;;;;;;;591.45;356.58;;;;;;;;;;4991573;28;20038;-87
2021/04/01 04:44:12;;;;;;;584.92;363.92;;;;;;;;;;4977810;28;20490;-84
2021/04/01 04:46:38;;;;;;;568.40;342.40;;;;;;;;;;4979499;28;20405;-85
2021/04/01 04:49:04;;;;;;;581.33;359.75;;;;;;;;;;4981010;28;20026;-83
2021/04/01 04:51:31;;;;;;;612.67;368.52;;;;;;;;;;4978729;28;20034;-84
2021/04/01 04:53:57;;;;;;;595.72;365.55;;;;;;;;;;4979888;28;20046;-84
2021/04/01 04:56:24;;;;;;;582.00;354.25;;;;;;;;;;4993487;28;20068;-85
2021/04/01 05:09:19;;;;;;;598.55;355.48;;;;;;;;;;4994903;28;20192;-83
2021/04/01 05:11:44;;;;;;;604.05;363.40;;;;;;;;;;4986107;28;20033;-84
2021/04/01 05:14:13;;;;;;;581.40;343.73;;;;;;;;;;4994585;28;20038;-81
2021/04/01 05:16:39;;;;;;;613.33;377.35;;;;;;;;;;4994925;28;20025;-85
2021/04/01 05:19:08;;;;;;;515.85;314.67;;;;;;;;;;4977243;28;20121;-84
2021/04/01 05:21:42;;;;;;;549.50;343.10;;;;;;;;;;4976112;28;20542;-83
2021/04/01 05:24:09;;;;;;;620.28;379.17;;;;;;;;;;4981002;28;20048;-85
2021/04/01 05:29:04;;;;;;;618.83;373.77;;;;;;;;;;5011903;28;20034;-83
2021/04/01 05:31:33;;;;;;;536.53;326.75;;;;;;;;;;4995346;28;20014;-84
2021/04/01 05:33:59;;;;;;;629.85;372.50;;;;;;;;;;4981906;28;20154;-85
2021/04/01 05:36:27;;;;;;;553.78;340.85;;;;;;;;;;4990019;28;20103;-84
2021/04/01 05:38:54;;;;;;;637.53;379.02;;;;;;;;;;4984467;28;20108;-85
2021/04/01 05:41:24;;;;;;;599.97;364.17;;;;;;;;;;4988107;28;20030;-84
2021/04/01 05:46:41;;;;;;;625.85;377.58;;;;;;;;;;4952361;28;20339;-84
2021/04/01 06:01:00;;;;;;;517.10;323.27;;;;;;;;;;5003542;28;20045;-84
2021/04/01 06:06:23;;;;;;;623.33;381.55;;;;;;;;;;4979266;28;20028;-85
2021/04/01 06:08:52;;;;;;;632.83;383.17;;;;;;;;;;4982728;28;20021;-85
2021/04/01 06:11:21;;;;;;;531.15;329.80;;;;;;;;;;4994265;28;20033;-84
2021/04/01 06:14:14;;;;;;;644.88;399.35;;;;;;;;;;4984301;28;20054;-87
2021/04/01 06:16:41;;;;;;;513.47;315.08;;;;;;;;;;4988347;28;20121;-84
2021/04/01 06:19:11;;;;;;;572.08;355.15;;;;;;;;;;4985275;28;20340;-83
2021/04/01 06:21:37;;;;;;;;;;;;;;;;;;4976841;28;20041;-84
2021/04/01 06:24:13;;;;;;;639.50;380.05;;;;;;;;;;5003533;28;19996;-83
2021/04/01 06:26:44;;;;;;;523.00;328.45;;;;;;;;;;4968242;28;20042;-85
2021/04/01 06:29:15;;;;;;;630.88;382.20;;;;;;;;;;4966084;28;20366;-84
2021/04/01 06:31:44;;;;;;;519.33;324.83;;;;;;;;;;4969602;28;20026;-85
2021/04/01 06:34:11;;;;;;;623.37;384.30;;;;;;;;;;4970595;28;20110;-86
2021/04/01 06:36:48;;;;;;;576.33;368.23;;;;;;;;;;4957619;28;20321;-84
2021/04/01 06:39:21;;;;;;;617.78;379.48;;;;;;;;;;4955536;28;20034;-83
2021/04/01 06:41:49;;;;;;;560.03;352.83;;;;;;;;;;4956272;28;20459;-84
2021/04/01 06:44:15;;;;;;;602.10;380.58;;;;;;;;;;4956318;28;20041;-83
2021/04/01 06:46:51;;;;;;;569.38;369.40;;;;;;;;;;4969075;28;20487;-83
2021/04/01 06:52:15;;;;;;;535.78;345.63;;;;;;;;;;4986287;28;20041;-83
2021/04/01 06:54:53;;;;;;;554.20;360.67;;;;;;;;;;4964445;28;20033;-84
2021/04/01 06:57:34;;;;;;;555.33;364.52;;;;;;;;;;4958619;28;20073;-84
2021/04/01 07:00:31;;;;;;;577.55;378.35;;;;;;;;;;4974757;28;20031;-83
2021/04/01 07:03:05;;;;;;;623.38;402.73;;;;;;;;;;4967101;28;20030;-87
2021/04/01 07:05:43;;;;;;;633.20;419.25;;;;;;;;;;4974216;28;20022;-85
2021/04/01 07:08:11;;;;;;;577.20;388.27;;;;;;;;;;4974373;28;20519;-84
2021/04/01 07:47:18;;;;;;;493.85;360.38;;;;;;;;;;4997695;28;20101;-76
2021/04/01 07:49:46;;;;;;;496.30;362.83;;;;;;;;;;5002648;28;20053;-76
2021/04/01 07:52:13;;;;;;;494.35;365.40;;;;;;;;;;5019993;28;20021;-77
2021/04/01 07:54:53;;;;;;;495.02;367.48;;;;;;;;;;5014657;28;20125;-77
2021/04/01 08:03:02;;;;;;;479.60;369.25;;;;;;;;;;5028901;28;20033;-74
2021/04/01 08:05:33;;;;;;;479.17;368.92;;;;;;;;;;5022003;28;20026;-78
2021/04/01 08:08:02;;;;;;;477.85;372.48;;;;;;;;;;5048312;28;20043;-75
2021/04/01 08:10:40;;;;;;;474.40;374.58;;;;;;;;;;5054907;28;20115;-74
2021/04/01 08:13:10;;;;;;;467.85;368.00;;;;;;;;;;5029552;28;20060;-75
2021/04/01 08:15:41;;;;;;;470.05;374.70;;;;;;;;;;5045915;28;20163;-75
2021/04/01 08:20:43;;;;;;;445.08;359.35;;;;;;;;;;5051936;28;19920;-76
2021/04/01 08:23:16;;;;;;;444.50;370.88;;;;;;;;;;5031027;28;20025;-73
2021/04/01 08:25:47;;;;;;;439.98;373.83;;;;;;;;;;5044931;28;20040;-74
2021/04/01 08:28:27;;;;;;;449.38;378.10;;;;;;;;;;5048723;28;20730;-75
2021/04/01 08:31:15;;;;;;;440.13;376.27;;;;;;;;;;5052665;28;20021;-75
2021/04/01 08:36:31;;;;;;;431.40;371.52;;;;;;;;;;5035253;28;20086;-73
2021/04/01 08:38:57;;;;;;;433.85;379.02;;;;;;;;;;5032153;28;20374;-72
2021/04/01 08:41:33;;;;;;;428.05;379.63;;;;;;;;;;5027144;28;20112;-74
2021/04/01 08:44:18;;;;;;;428.92;378.80;;;;;;;;;;5029127;28;20025;-75
2021/04/01 08:47:03;;;;;;;426.17;378.42;;;;;;;;;;5021446;28;20033;-74
2021/04/01 08:49:29;;;;;;;423.52;377.00;;;;;;;;;;5029184;28;20037;-73
2021/04/01 08:51:58;;;;;;;431.77;384.80;;;;;;;;;;5018867;28;20060;-71
2021/04/01 08:54:30;;;;;;;421.70;375.30;;;;;;;;;;5051052;28;20473;-70
2021/04/01 08:57:16;;;;;;;434.13;387.08;;;;;;;;;;5034102;28;20792;-73
2021/04/01 09:00:00;;;;;;;427.30;381.55;;;;;;;;;;5046869;28;20079;-74
2021/04/01 09:02:27;;;;;;;430.92;384.77;;;;;;;;;;5041331;28;20025;-74
2021/04/01 09:04:54;;;;;;;435.73;389.75;;;;;;;;;;5028427;28;20032;-74
2021/04/01 09:07:28;;;;;;;437.50;391.25;;;;;;;;;;5047499;28;20025;-73
2021/04/01 09:10:01;;;;;;;441.05;394.60;;;;;;;;;;5024897;28;20030;-72
2021/04/01 09:12:39;;;;;;;439.98;393.98;;;;;;;;;;5048865;28;20079;-73
2021/04/01 09:15:12;;;;;;;446.38;400.10;;;;;;;;;;5049950;28;20028;-75
2021/04/01 09:17:39;;;;;;;444.77;398.63;;;;;;;;;;5041130;28;20028;-74
2021/04/01 09:20:18;;;;;;;446.85;400.83;;;;;;;;;;5031543;28;20126;-74
2021/04/01 09:22:50;;;;;;;448.70;402.27;;;;;;;;;;5013480;28;20029;-70
2021/04/01 09:25:17;;;;;;;440.98;395.30;;;;;;;;;;5031582;28;20128;-74
2021/04/01 09:27:50;;;;;;;441.85;395.77;;;;;;;;;;5025336;28;20031;-74
2021/04/01 09:30:17;;;;;;;436.52;391.08;;;;;;;;;;5032810;28;20400;-74
2021/04/01 09:32:46;;;;;;;437.85;392.13;;;;;;;;;;5028729;28;20049;-73
2021/04/01 09:35:12;;;;;;;433.45;387.95;;;;;;;;;;5033006;28;20025;-74
2021/04/01 09:37:55;;;;;;;432.27;386.77;;;;;;;;;;5028770;28;20033;-73
2021/04/01 09:40:27;;;;;;;432.77;387.33;;;;;;;;;;5047185;28;20060;-72
2021/04/01 09:42:53;;;;;;;432.63;387.02;;;;;;;;;;5031317;28;20647;-72
2021/04/01 09:45:29;;;;;;;435.45;389.65;;;;;;;;;;5025130;28;20432;-72
2021/04/01 09:48:01;;;;;;;436.60;391.15;;;;;;;;;;5032161;28;20381;-73
2021/04/01 09:50:31;;;;;;;439.92;394.15;;;;;;;;;;5031739;28;20496;-73
2021/04/01 09:52:57;;;;;;;442.90;397.25;;;;;;;;;;5026251;28;20026;-73
2021/04/01 09:55:23;;;;;;;450.73;404.58;;;;;;;;;;5019388;28;20025;-74
2021/04/01 09:57:51;;;;;;;451.05;405.60;;;;;;;;;;5025893;28;20037;-72
2021/04/01 10:00:49;;;;;;;460.85;414.73;;;;;;;;;;5021850;28;20021;-72
2021/04/01 10:03:18;;;;;;;465.92;419.60;;;;;;;;;;5034543;28;20028;-73
2021/04/01 10:05:46;;;;;;;467.10;421.08;;;;;;;;;;5026958;28;20021;-73
2021/04/01 10:08:23;;;;;;;474.10;428.02;;;;;;;;;;5032212;28;20044;-73
2021/04/01 10:10:50;;;;;;;475.40;429.35;;;;;;;;;;5033796;28;20155;-72
2021/04/01 10:13:20;;;;;;;482.02;435.52;;;;;;;;;;5049515;28;20139;-72
2021/04/01 10:15:46;;;;;;;483.67;437.43;;;;;;;;;;5045138;28;20017;-72
2021/04/01 10:18:14;;;;;;;485.13;438.65;;;;;;;;;;5032222;28;20044;-73
2021/04/01 10:20:40;;;;;;;497.15;450.45;;;;;;;;;;5027346;28;20947;-73
2021/04/01 10:23:07;;;;;;;495.17;448.90;;;;;;;;;;5016013;28;20405;-72
2021/04/01 10:25:47;;;;;;;500.10;453.42;;;;;;;;;;5037762;28;20498;-74
2021/04/01 10:28:25;;;;;;;503.58;457.13;;;;;;;;;;5048089;28;20618;-71
2021/04/01 10:30:52;;;;;;;504.70;458.30;;;;;;;;;;5049388;28;20028;-72
2021/04/01 10:33:28;;;;;;;504.98;458.83;;;;;;;;;;5043642;28;20041;-74
2021/04/01 10:35:56;;;;;;;504.58;458.52;;;;;;;;;;5049540;28;20037;-73
2021/04/01 10:38:23;;;;;;;505.50;459.55;;;;;;;;;;5032989;28;20108;-74
2021/04/01 10:40:50;;;;;;;503.15;457.17;;;;;;;;;;5047640;28;20401;-72
2021/04/01 10:43:18;;;;;;;503.65;457.30;;;;;;;;;;5031326;28;20029;-73
2021/04/01 10:45:45;;;;;;;502.75;456.33;;;;;;;;;;5022818;28;20143;-71
2021/04/01 10:48:33;;;;;;;501.08;454.95;;;;;;;;;;5024792;28;20017;-71
2021/04/01 10:51:04;;;;;;;492.13;446.50;;;;;;;;;;5049599;28;20626;-74
2021/04/01 10:53:31;;;;;;;491.20;445.45;;;;;;;;;;5031411;28;20346;-73
2021/04/01 10:56:08;;;;;;;493.27;447.40;;;;;;;;;;5021246;28;20029;-74
2021/04/01 10:58:35;;;;;;;489.83;443.67;;;;;;;;;;5031913;28;20041;-72
2021/04/01 11:01:01;;;;;;;489.40;443.45;;;;;;;;;;5040189;28;20033;-71
2021/04/01 11:03:29;;;;;;;489.42;443.30;;;;;;;;;;5033387;28;20107;-71
2021/04/01 11:05:56;;;;;;;492.00;445.77;;;;;;;;;;5036043;28;20451;-72
2021/04/01 11:08:24;;;;;;;492.50;445.85;;;;;;;;;;5039495;28;20032;-72
2021/04/01 11:11:00;;;;;;;493.27;447.10;;;;;;;;;;5020701;28;20017;-73
2021/04/01 11:13:33;;;;;;;484.90;438.95;;;;;;;;;;5041220;28;20071;-72
2021/04/01 11:16:03;;;;;;;490.05;443.98;;;;;;;;;;5039844;28;20104;-71
2021/04/01 11:18:29;;;;;;;;;;;;;;;;;;5021725;28;20428;-71
2021/04/01 11:20:55;;;;;;;478.00;432.42;;;;;;;;;;5037557;28;19925;-72
2021/04/01 11:23:22;;;;;;;483.92;438.70;;;;;;;;;;5040939;28;20025;-71
2021/04/01 11:25:50;;;;;;;491.60;445.75;;;;;;;;;;5043741;28;20508;-74
2021/04/01 11:28:18;;;;;;;487.83;442.63;;;;;;;;;;5039030;28;20068;-72
2021/04/01 11:30:49;;;;;;;487.20;441.95;;;;;;;;;;5026384;28;20028;-72
2021/04/01 11:33:22;;;;;;;484.65;439.42;;;;;;;;;;5025579;28;20061;-73
2021/04/01 11:35:58;;;;;;;476.83;431.83;;;;;;;;;;5044594;28;20037;-72
2021/04/01 11:38:26;;;;;;;482.83;437.52;;;;;;;;;;5025688;28;20114;-73
2021/04/01 11:41:03;;;;;;;486.25;440.65;;;;;;;;;;5039373;28;20055;-72
2021/04/01 11:43:31;;;;;;;480.23;435.02;;;;;;;;;;5030632;28;20017;-72
2021/04/01 11:45:57;;;;;;;477.80;432.63;;;;;;;;;;5032787;28;20135;-72
2021/04/01 11:48:23;;;;;;;478.90;433.33;;;;;;;;;;5047243;28;20065;-73
2021/04/01 11:50:50;;;;;;;481.88;436.10;;;;;;;;;;5035278;28;20032;-71
2021/04/01 11:53:16;;;;;;;481.95;436.38;;;;;;;;;;5023702;28;20025;-71
2021/04/01 11:56:08;;;;;;;483.30;437.52;;;;;;;;;;5043193;28;20029;-73
2021/04/01 11:58:36;;;;;;;485.95;440.40;;;;;;;;;;5032786;28;20048;-72
2021/04/01 12:01:03;;;;;;;496.13;450.20;;;;;;;;;;5041857;28;20038;-71
2021/04/01 12:03:41;;;;;;;505.90;459.80;;;;;;;;;;5048640;28;20022;-73
2021/04/01 12:06:07;;;;;;;513.35;467.20;;;;;;;;;;5038373;28;20025;-71
2021/04/01 12:08:33;;;;;;;519.95;473.48;;;;;;;;;;5032194;28;20633;-73
2021/04/01 12:10:59;;;;;;;524.83;478.58;;;;;;;;;;5044870;28;20041;-70
2021/04/01 12:13:26;;;;;;;526.78;480.13;;;;;;;;;;5026720;28;20051;-70
2021/04/01 12:15:52;;;;;;;529.75;483.13;;;;;;;;;;5051192;28;20082;-73
2021/04/01 12:18:19;;;;;;;530.05;483.17;;;;;;;;;;5033923;28;20508;-72
2021/04/01 12:20:45;;;;;;;531.10;484.40;;;;;;;;;;5046822;28;20041;-71
2021/04/01 12:23:15;;;;;;;537.85;491.27;;;;;;;;;;5032241;28;20034;-72
2021/04/01 12:25:42;;;;;;;538.22;491.48;;;;;;;;;;5027728;28;20381;-72
2021/04/01 12:28:16;;;;;;;534.40;487.67;;;;;;;;;;5039162;28;20021;-72
2021/04/01 12:30:47;;;;;;;541.33;494.75;;;;;;;;;;5052701;28;20027;-74
2021/04/01 12:33:19;;;;;;;544.85;497.67;;;;;;;;;;5040496;28;20048;-73
2021/04/01 12:36:04;;;;;;;529.75;483.52;;;;;;;;;;5045694;28;20021;-73
2021/04/01 12:38:42;;;;;;;518.58;472.75;;;;;;;;;;5044452;28;20785;-73
2021/04/01 12:41:28;;;;;;;507.95;462.10;;;;;;;;;;5023486;28;20026;-73
2021/04/01 12:43:54;;;;;;;493.38;447.30;;;;;;;;;;5033635;28;20461;-76
2021/04/01 12:46:20;;;;;;;482.95;436.88;;;;;;;;;;5019150;28;20041;-72
2021/04/01 12:49:05;;;;;;;474.33;428.17;;;;;;;;;;5031121;28;20084;-74
2021/04/01 12:51:41;;;;;;;461.20;414.85;;;;;;;;;;5029067;28;20029;-73
2021/04/01 12:54:09;;;;;;;447.45;401.55;;;;;;;;;;5051301;28;20024;-72
2021/04/01 12:56:41;;;;;;;443.75;397.77;;;;;;;;;;5043468;28;20482;-72
2021/04/01 12:59:20;;;;;;;438.80;393.23;;;;;;;;;;5036847;28;20105;-73
2021/04/01 13:01:54;;;;;;;435.63;388.70;;;;;;;;;;5038560;28;20458;-71
2021/04/01 13:04:22;;;;;;;427.35;381.45;;;;;;;;;;5033631;28;20017;-71
2021/04/01 13:07:02;;;;;;;424.08;378.00;;;;;;;;;;5014550;28;20540;-77
2021/04/01 13:09:36;;;;;;;416.73;370.80;;;;;;;;;;5013269;28;20032;-76
2021/04/01 13:12:28;;;;;;;417.27;371.23;;;;;;;;;;5038986;28;20021;-76
2021/04/01 13:14:54;;;;;;;415.52;368.45;;;;;;;;;;5020047;28;20081;-75
2021/04/01 13:17:20;;;;;;;420.42;371.73;;;;;;;;;;5023474;28;20667;-75
2021/04/01 13:19:46;;;;;;;419.33;367.80;;;;;;;;;;5042266;28;20052;-73
2021/04/01 13:22:15;;;;;;;416.02;362.40;;;;;;;;;;5023752;28;20666;-75
2021/04/01 13:27:16;;;;;;;416.10;357.10;;;;;;;;;;5041319;28;20037;-74
2021/04/01 13:29:54;;;;;;;412.67;348.98;;;;;;;;;;5043917;28;20067;-74
2021/04/01 13:37:43;;;;;;;409.13;347.75;;;;;;;;;;5047725;28;20029;-76
2021/04/01 13:40:16;;;;;;;411.58;350.25;;;;;;;;;;5047077;28;20032;-74
2021/04/01 13:42:44;;;;;;;418.80;350.33;;;;;;;;;;5048297;28;20013;-71
2021/04/01 13:45:13;;;;;;;408.85;347.23;;;;;;;;;;5043735;28;20534;-73
2021/04/01 13:47:44;;;;;;;417.33;344.50;;;;;;;;;;5044357;28;20021;-72
2021/04/01 13:50:13;;;;;;;418.83;350.83;;;;;;;;;;5037325;28;20017;-72
2021/04/01 13:55:28;;;;;;;411.80;348.05;;;;;;;;;;5034318;28;20033;-72
2021/04/01 14:11:19;;;;;;;409.80;344.03;;;;;;;;;;5033446;28;20044;-73
2021/04/01 14:13:45;;;;;;;418.63;357.33;;;;;;;;;;5016675;28;20021;-72
2021/04/01 14:16:12;;;;;;;421.63;363.83;;;;;;;;;;5023840;28;20041;-74
2021/04/01 14:18:38;;;;;;;428.58;381.20;;;;;;;;;;5026611;28;20021;-72
2021/04/01 14:21:05;;;;;;;444.98;396.60;;;;;;;;;;5042629;28;20041;-72
2021/04/01 14:23:37;;;;;;;456.45;408.17;;;;;;;;;;5046634;28;20017;-70
2021/04/01 14:28:58;;;;;;;483.98;435.85;;;;;;;;;;5012621;28;20040;-73
2021/04/01 14:31:24;;;;;;;497.98;449.95;;;;;;;;;;5022940;28;20025;-70
2021/04/01 14:33:50;;;;;;;504.00;455.25;;;;;;;;;;5021928;28;20039;-72
2021/04/01 14:36:19;;;;;;;504.80;456.33;;;;;;;;;;5020550;28;20123;-71
2021/04/01 14:38:45;;;;;;;507.27;458.73;;;;;;;;;;5048126;28;20536;-73
2021/04/01 14:41:23;;;;;;;506.30;456.83;;;;;;;;;;5045576;28;20039;-71
2021/04/01 14:46:20;;;;;;;667.00;600.28;;;;;;;;;;5028699;28;20116;-71
2021/04/01 14:48:46;;;;;;;500.25;448.98;;;;;;;;;;5044309;28;20082;-71
2021/04/01 14:51:12;;;;;;;506.55;454.20;;;;;;;;;;5030098;28;20029;-71
2021/04/01 14:54:16;;;;;;;642.85;576.58;;;;;;;;;;5030453;28;20061;-70
2021/04/01 14:56:36;;;;;;;542.35;484.25;;;;;;;;;;5034229;28;20049;-73
2021/04/01 14:59:03;;;;;;;640.15;573.30;;;;;;;;;;5019672;28;20029;-71
2021/04/01 15:01:30;;;;;;;467.60;418.25;;;;;;;;;;5037383;28;20025;-72
2021/04/01 15:03:59;;;;;;;489.98;436.90;;;;;;;;;;5046060;28;20052;-71
2021/04/01 15:06:26;;;;;;;616.50;549.78;;;;;;;;;;5040385;28;20107;-71
2021/04/01 15:08:54;;;;;;;457.35;408.25;;;;;;;;;;5035301;28;20022;-71
2021/04/01 15:11:21;;;;;;;463.10;413.08;;;;;;;;;;5030202;28;20643;-72
2021/04/01 15:13:47;;;;;;;624.35;557.35;;;;;;;;;;5017434;28;20083;-72
2021/04/01 15:16:13;;;;;;;468.23;417.45;;;;;;;;;;5025638;28;20029;-71
2021/04/01 15:18:39;;;;;;;560.40;499.08;;;;;;;;;;5026557;28;20659;-71
2021/04/01 15:21:06;;;;;;;461.95;411.90;;;;;;;;;;5023278;28;20037;-72
2021/04/01 15:23:32;;;;;;;485.55;432.67;;;;;;;;;;5030898;28;20029;-71
2021/04/01 15:25:58;;;;;;;621.88;555.20;;;;;;;;;;5048093;28;20018;-71
2021/04/01 15:28:24;;;;;;;451.63;403.88;;;;;;;;;;5031397;28;20050;-72
2021/04/01 15:30:49;;;;;;;461.38;412.42;;;;;;;;;;5047700;28;20373;-71
2021/04/01 15:33:16;;;;;;;470.98;420.27;;;;;;;;;;5030941;28;20025;-71
2021/04/01 15:35:42;;;;;;;466.33;416.25;;;;;;;;;;5030799;28;20025;-71
2021/04/01 15:38:09;;;;;;;472.98;421.50;;;;;;;;;;5049081;28;20040;-71
2021/04/01 15:40:36;;;;;;;510.73;454.02;;;;;;;;;;5028933;28;20556;-74
2021/04/01 15:43:04;;;;;;;496.65;441.85;;;;;;;;;;5049235;28;20484;-71
2021/04/01 15:45:30;;;;;;;594.35;528.20;;;;;;;;;;5030181;28;20021;-71
2021/04/01 15:48:17;;;;;;;494.48;438.10;;;;;;;;;;5073088;23;20060;-86
2021/04/01 15:50:44;;;;;;;486.83;428.83;;;;;;;;;;5001497;28;20046;-86
2021/04/01 15:53:15;;;;;;;601.33;535.35;;;;;;;;;;5025859;28;20022;-85
2021/04/01 15:59:00;;;;;;;469.88;417.98;;;;;;;;;;4964137;28;20031;-86
2021/04/01 16:01:58;;;;;;;582.83;518.80;;;;;;;;;;5012073;28;20037;-87
2021/04/01 16:41:33;;;;;;;434.05;386.23;;;;;;;;;;4884253;29;20073;-83
2021/04/01 16:47:53;;;;;;;;;;;;;;;;;;;;;
2021/04/01 16:50:22;;;;;;;420.33;349.38;;;;;;;;;;4973178;28;20049;-84
2021/04/01 16:53:22;;;;;;;424.10;344.63;;;;;;;;;;4969051;28;20029;-82